Strona główna
METAR-TAF:

METAR-TAF

Lotnisko :

Port lotniczy Gharis

Ghriss, Algieria

Szerokość geograficzna: 35-12N, Długość geograficzna: 000-08E, wysokość: 514 m

Aktualna obserwacja pogody

Raport powstał 58 minut temu, godzina 18:00 UTC
Wiatr 15 kt od północny wschód
Temperatura 35°C
Wilgotność 18%
Ciśnienie 1009 hPa
Widzialność 10 km lub więcej
Brak chmur poniżej 1500 m i brak chmur cumulonimbus

METAR: DAOV 251800Z 04015KT CAVOK 35/07 Q1009

czas: 19:58 (18:58 UTC)

Prognoza

Raport powstał 1 godzina i 58 minut temu, godzina 17:00 UTC
Prognoza ważna od 25 godzina 18 UTC do 26 godzina 03 UTC
Wiatr 12 kt od północno-północny wschód
Widzialność 10 km lub więcej
Brak chmur poniżej 1500 m i brak chmur cumulonimbus
Stopniowe zmiany
od 25 godzina 21 UTC do 25 godzina 24 UTC
Wiatr 2 kt z kierunków zmiennych

TAF: DAOV 251700Z 2518/2603 03012KT CAVOK BECMG 2521/2524 VRB02KT

Obserwacja i prognoza pogody dla ponad 4000 lotnisk (raport METAR i TAF).

Dostępne stacje oznaczono żółtymi i czerwonymi punktami na mapie.

Najedź kursorem aby zobaczyć nazwę stacji.

Kliknij aby zobaczyć obserwacje i prognozy pogody.

Aby zmienić mapę: kliknij na zielony przycisk z czarnym krzyżykiem, aby powiększyć; na zielony przycisk z myślnikiem, aby pomniejszyć; na zielone strzałki, aby przejść do map sąsiednich.


METAR-TAF: